Belgrade Lakes, Maine
Current Conditions -  °F | °C
As of 7:35 PM on Sunday 25 Jan 2015 (Local Time) from KWVL Reporting Station
Clear Clear  
Wind Chill: -4°   Ceiling: Unl
Heat Index:   Visibility: 10mi
Dew Point: -8°   Wind: 8mph
Humidity: 48%   Direction: 260°W
Pressure: 29.84"   Gusts: NA
Location:  44.53°N, 69.89°W
Report Text: KWVL 260035Z 26007KT 10SM CLR M13/M22 A2984 RMK AO1
Loading
Personal Weather Stations






























Interactive Weather Map New forecast layout! Learn more

10-Day Weather Forecast

Advertisements
Track Severe Weather on mobile